createdAt,value
2018-12-23T21:13:09.194Z,24.78
2018-12-23T21:19:13.169Z,24.63
2018-12-23T21:22:03.654Z,24.34
2018-12-23T21:24:41.893Z,24.28
2018-12-23T21:27:22.947Z,24.23
2018-12-23T21:30:01.457Z,24.20
2018-12-23T21:32:53.948Z,24.16
2018-12-23T21:35:29.646Z,24.13
2018-12-23T21:38:19.345Z,24.09
2018-12-23T21:44:24.035Z,23.79
2018-12-23T21:47:20.173Z,21.16
2018-12-23T21:49:58.145Z,17.87
2018-12-23T21:52:45.536Z,15.25
2018-12-23T21:55:28.535Z,13.87
2018-12-23T21:58:13.050Z,12.90
2018-12-23T22:00:51.616Z,11.98
2018-12-23T22:03:42.526Z,11.31
2018-12-23T22:06:31.224Z,10.81
2018-12-23T22:09:20.570Z,10.43
2018-12-23T22:11:53.318Z,10.16
2018-12-23T22:14:23.797Z,9.96
2018-12-23T22:16:52.947Z,9.80
2018-12-23T22:19:23.454Z,9.66
2018-12-23T22:21:53.391Z,9.54
2018-12-23T22:24:22.346Z,9.46
2018-12-23T22:26:51.681Z,9.38
2018-12-23T22:29:20.799Z,9.32
2018-12-23T22:31:49.974Z,9.26
2018-12-23T22:34:19.128Z,9.18
2018-12-23T22:36:49.280Z,9.11
2018-12-23T22:39:18.861Z,9.09
2018-12-23T22:41:48.789Z,9.05
2018-12-23T22:44:18.523Z,8.99
2018-12-23T22:46:48.700Z,8.94
2018-12-23T22:49:18.907Z,8.88
2018-12-23T22:51:49.087Z,8.83
2018-12-23T22:54:18.604Z,8.76
2018-12-23T22:56:48.023Z,8.71
2018-12-23T22:59:20.404Z,8.67
2018-12-23T23:01:50.470Z,8.64
2018-12-23T23:04:19.836Z,8.59
2018-12-23T23:06:49.272Z,8.59
2018-12-23T23:09:18.653Z,8.61
2018-12-23T23:11:49.989Z,8.59
2018-12-23T23:14:19.468Z,8.59
2018-12-23T23:16:49.686Z,8.61
2018-12-23T23:19:19.263Z,8.60
2018-12-23T23:21:48.637Z,8.60
2018-12-23T23:24:18.139Z,8.55
2018-12-23T23:26:47.772Z,8.47
2018-12-23T23:29:17.148Z,8.43
2018-12-23T23:31:46.662Z,8.39
2018-12-23T23:34:16.142Z,8.35
2018-12-23T23:36:48.716Z,8.30
2018-12-23T23:39:18.285Z,8.28
2018-12-23T23:41:47.870Z,8.24
2018-12-23T23:44:16.944Z,8.20
2018-12-23T23:46:46.345Z,8.17
2018-12-23T23:49:15.718Z,8.16
2018-12-23T23:51:45.336Z,8.17
2018-12-23T23:54:14.786Z,8.20
2018-12-23T23:56:44.174Z,8.19
2018-12-23T23:59:13.750Z,8.16
